sensor_id;sensor_type;location;lat;lon;timestamp;temperature;humidity
46976;DHT22;32724;51.094;6.996;2023-06-14T00:00:37;18.90;67.80
46976;DHT22;32724;51.094;6.996;2023-06-14T00:03:09;18.80;68.20
46976;DHT22;32724;51.094;6.996;2023-06-14T00:05:43;18.70;68.70
46976;DHT22;32724;51.094;6.996;2023-06-14T00:08:09;18.70;69.00
46976;DHT22;32724;51.094;6.996;2023-06-14T00:10:38;18.60;69.40
46976;DHT22;32724;51.094;6.996;2023-06-14T00:13:06;18.50;69.40
46976;DHT22;32724;51.094;6.996;2023-06-14T00:15:32;18.50;69.70
46976;DHT22;32724;51.094;6.996;2023-06-14T00:17:58;18.40;69.80
46976;DHT22;32724;51.094;6.996;2023-06-14T00:20:29;18.40;70.10
46976;DHT22;32724;51.094;6.996;2023-06-14T00:22:56;18.30;70.30
46976;DHT22;32724;51.094;6.996;2023-06-14T00:25:24;18.30;70.20
46976;DHT22;32724;51.094;6.996;2023-06-14T00:27:53;18.30;70.30
46976;DHT22;32724;51.094;6.996;2023-06-14T00:30:19;18.20;70.50
46976;DHT22;32724;51.094;6.996;2023-06-14T00:32:44;18.20;70.20
46976;DHT22;32724;51.094;6.996;2023-06-14T00:35:10;18.20;70.10
46976;DHT22;32724;51.094;6.996;2023-06-14T00:37:36;18.30;69.80
46976;DHT22;32724;51.094;6.996;2023-06-14T00:40:02;18.30;69.70
46976;DHT22;32724;51.094;6.996;2023-06-14T00:42:28;18.40;69.70
46976;DHT22;32724;51.094;6.996;2023-06-14T00:44:53;18.40;70.70
46976;DHT22;32724;51.094;6.996;2023-06-14T00:47:19;18.30;71.10
46976;DHT22;32724;51.094;6.996;2023-06-14T00:49:45;18.20;71.40
46976;DHT22;32724;51.094;6.996;2023-06-14T00:52:11;18.10;72.00
46976;DHT22;32724;51.094;6.996;2023-06-14T00:54:40;18.00;72.80
46976;DHT22;32724;51.094;6.996;2023-06-14T00:57:07;17.90;72.70
46976;DHT22;32724;51.094;6.996;2023-06-14T00:59:33;17.80;73.50
46976;DHT22;32724;51.094;6.996;2023-06-14T01:01:58;17.70;73.90
46976;DHT22;32724;51.094;6.996;2023-06-14T01:04:24;17.60;74.10
46976;DHT22;32724;51.094;6.996;2023-06-14T01:06:54;17.60;74.30
46976;DHT22;32724;51.094;6.996;2023-06-14T01:09:29;17.50;74.10
46976;DHT22;32724;51.094;6.996;2023-06-14T01:14:21;17.50;73.40
46976;DHT22;32724;51.094;6.996;2023-06-14T01:16:47;17.60;72.50
46976;DHT22;32724;51.094;6.996;2023-06-14T01:19:12;17.60;72.20
46976;DHT22;32724;51.094;6.996;2023-06-14T01:21:39;17.60;72.00
46976;DHT22;32724;51.094;6.996;2023-06-14T01:24:10;17.60;72.10
46976;DHT22;32724;51.094;6.996;2023-06-14T01:26:36;17.60;72.40
46976;DHT22;32724;51.094;6.996;2023-06-14T01:29:03;17.60;72.30
46976;DHT22;32724;51.094;6.996;2023-06-14T01:31:28;17.60;71.90
46976;DHT22;32724;51.094;6.996;2023-06-14T01:33:54;17.60;72.00
46976;DHT22;32724;51.094;6.996;2023-06-14T01:36:20;17.60;71.80
46976;DHT22;32724;51.094;6.996;2023-06-14T01:38:48;17.60;71.80
46976;DHT22;32724;51.094;6.996;2023-06-14T01:41:15;17.60;71.70
46976;DHT22;32724;51.094;6.996;2023-06-14T01:43:41;17.60;71.80
46976;DHT22;32724;51.094;6.996;2023-06-14T01:46:07;17.60;72.10
46976;DHT22;32724;51.094;6.996;2023-06-14T01:48:33;17.50;72.00
46976;DHT22;32724;51.094;6.996;2023-06-14T01:50:59;17.50;71.90
46976;DHT22;32724;51.094;6.996;2023-06-14T01:53:25;17.50;72.10
46976;DHT22;32724;51.094;6.996;2023-06-14T01:55:50;17.50;72.20
46976;DHT22;32724;51.094;6.996;2023-06-14T01:58:19;17.40;72.40
46976;DHT22;32724;51.094;6.996;2023-06-14T02:00:44;17.30;72.30
46976;DHT22;32724;51.094;6.996;2023-06-14T02:03:10;17.30;72.10
46976;DHT22;32724;51.094;6.996;2023-06-14T02:05:37;17.30;72.30
46976;DHT22;32724;51.094;6.996;2023-06-14T02:08:04;17.30;72.30
46976;DHT22;32724;51.094;6.996;2023-06-14T02:10:29;17.30;72.20
46976;DHT22;32724;51.094;6.996;2023-06-14T02:12:55;17.20;72.20
46976;DHT22;32724;51.094;6.996;2023-06-14T02:15:20;17.20;72.40
46976;DHT22;32724;51.094;6.996;2023-06-14T02:17:47;17.20;72.50
46976;DHT22;32724;51.094;6.996;2023-06-14T02:20:13;17.10;72.40
46976;DHT22;32724;51.094;6.996;2023-06-14T02:22:38;17.10;72.30
46976;DHT22;32724;51.094;6.996;2023-06-14T02:25:04;17.10;72.40
46976;DHT22;32724;51.094;6.996;2023-06-14T02:27:29;17.10;72.50
46976;DHT22;32724;51.094;6.996;2023-06-14T02:29:55;17.10;72.50
46976;DHT22;32724;51.094;6.996;2023-06-14T02:32:20;17.10;72.50
46976;DHT22;32724;51.094;6.996;2023-06-14T02:34:46;17.00;72.80
46976;DHT22;32724;51.094;6.996;2023-06-14T02:37:15;16.90;72.80
46976;DHT22;32724;51.094;6.996;2023-06-14T02:39:41;16.90;72.70
46976;DHT22;32724;51.094;6.996;2023-06-14T02:42:06;16.90;73.20
46976;DHT22;32724;51.094;6.996;2023-06-14T02:44:32;16.80;73.30
46976;DHT22;32724;51.094;6.996;2023-06-14T02:46:57;16.80;73.70
46976;DHT22;32724;51.094;6.996;2023-06-14T02:49:24;16.80;74.40
46976;DHT22;32724;51.094;6.996;2023-06-14T02:51:49;16.60;75.60
46976;DHT22;32724;51.094;6.996;2023-06-14T02:54:15;16.60;78.10
46976;DHT22;32724;51.094;6.996;2023-06-14T02:56:40;16.40;78.50
46976;DHT22;32724;51.094;6.996;2023-06-14T02:59:06;16.20;81.00
46976;DHT22;32724;51.094;6.996;2023-06-14T03:01:32;16.00;83.20
46976;DHT22;32724;51.094;6.996;2023-06-14T03:04:01;15.80;83.90
46976;DHT22;32724;51.094;6.996;2023-06-14T03:06:31;15.60;84.30
46976;DHT22;32724;51.094;6.996;2023-06-14T03:08:57;15.50;83.80
46976;DHT22;32724;51.094;6.996;2023-06-14T03:11:26;15.50;80.60
46976;DHT22;32724;51.094;6.996;2023-06-14T03:13:52;15.70;79.50
46976;DHT22;32724;51.094;6.996;2023-06-14T03:16:18;15.80;79.20
46976;DHT22;32724;51.094;6.996;2023-06-14T03:18:48;15.80;81.10
46976;DHT22;32724;51.094;6.996;2023-06-14T03:21:13;15.80;82.30
46976;DHT22;32724;51.094;6.996;2023-06-14T03:23:41;15.70;82.00
46976;DHT22;32724;51.094;6.996;2023-06-14T03:26:06;15.60;82.60
46976;DHT22;32724;51.094;6.996;2023-06-14T03:28:32;15.60;82.90
46976;DHT22;32724;51.094;6.996;2023-06-14T03:30:57;15.50;84.00
46976;DHT22;32724;51.094;6.996;2023-06-14T03:33:23;15.50;85.30
46976;DHT22;32724;51.094;6.996;2023-06-14T03:35:50;15.40;85.20
46976;DHT22;32724;51.094;6.996;2023-06-14T03:38:15;15.30;85.90
46976;DHT22;32724;51.094;6.996;2023-06-14T03:40:41;15.30;86.60
46976;DHT22;32724;51.094;6.996;2023-06-14T03:43:06;15.20;87.40
46976;DHT22;32724;51.094;6.996;2023-06-14T03:45:32;15.10;88.70
46976;DHT22;32724;51.094;6.996;2023-06-14T03:47:57;15.10;89.50
46976;DHT22;32724;51.094;6.996;2023-06-14T03:50:23;15.10;89.00
46976;DHT22;32724;51.094;6.996;2023-06-14T03:52:48;15.00;89.90
46976;DHT22;32724;51.094;6.996;2023-06-14T03:55:15;15.00;90.40
46976;DHT22;32724;51.094;6.996;2023-06-14T03:57:41;14.90;90.70
46976;DHT22;32724;51.094;6.996;2023-06-14T04:00:07;14.90;91.20
46976;DHT22;32724;51.094;6.996;2023-06-14T04:02:33;14.90;91.40
46976;DHT22;32724;51.094;6.996;2023-06-14T04:04:59;14.90;91.60
46976;DHT22;32724;51.094;6.996;2023-06-14T04:07:24;14.90;92.10
46976;DHT22;32724;51.094;6.996;2023-06-14T04:09:50;15.00;92.30
46976;DHT22;32724;51.094;6.996;2023-06-14T04:12:15;15.00;92.30
46976;DHT22;32724;51.094;6.996;2023-06-14T04:14:41;15.00;92.70
46976;DHT22;32724;51.094;6.996;2023-06-14T04:17:07;15.10;93.20
46976;DHT22;32724;51.094;6.996;2023-06-14T04:19:32;15.10;93.20
46976;DHT22;32724;51.094;6.996;2023-06-14T04:21:58;15.10;93.40
46976;DHT22;32724;51.094;6.996;2023-06-14T04:24:27;15.20;93.60
46976;DHT22;32724;51.094;6.996;2023-06-14T04:27:00;15.20;93.80
46976;DHT22;32724;51.094;6.996;2023-06-14T04:29:26;15.20;93.70
46976;DHT22;32724;51.094;6.996;2023-06-14T04:31:53;15.30;94.00
46976;DHT22;32724;51.094;6.996;2023-06-14T04:34:19;15.40;93.70
46976;DHT22;32724;51.094;6.996;2023-06-14T04:36:47;15.50;93.80
46976;DHT22;32724;51.094;6.996;2023-06-14T04:39:18;15.60;93.90
46976;DHT22;32724;51.094;6.996;2023-06-14T04:41:44;15.80;94.00
46976;DHT22;32724;51.094;6.996;2023-06-14T04:44:10;15.90;94.00
46976;DHT22;32724;51.094;6.996;2023-06-14T04:46:36;16.10;94.00
46976;DHT22;32724;51.094;6.996;2023-06-14T04:49:17;16.30;93.20
46976;DHT22;32724;51.094;6.996;2023-06-14T04:51:42;16.40;92.50
46976;DHT22;32724;51.094;6.996;2023-06-14T04:54:09;16.50;91.20
46976;DHT22;32724;51.094;6.996;2023-06-14T04:56:43;16.70;89.20
46976;DHT22;32724;51.094;6.996;2023-06-14T04:59:10;16.90;88.70
46976;DHT22;32724;51.094;6.996;2023-06-14T05:01:36;17.40;90.40
46976;DHT22;32724;51.094;6.996;2023-06-14T05:04:02;18.60;84.60
46976;DHT22;32724;51.094;6.996;2023-06-14T05:06:28;20.20;80.90
46976;DHT22;32724;51.094;6.996;2023-06-14T05:08:54;21.80;75.70
46976;DHT22;32724;51.094;6.996;2023-06-14T05:11:19;23.10;71.10
46976;DHT22;32724;51.094;6.996;2023-06-14T05:13:45;24.30;67.80
46976;DHT22;32724;51.094;6.996;2023-06-14T05:16:12;25.20;63.40
46976;DHT22;32724;51.094;6.996;2023-06-14T05:18:37;25.90;59.50
46976;DHT22;32724;51.094;6.996;2023-06-14T05:21:03;26.40;56.50
46976;DHT22;32724;51.094;6.996;2023-06-14T05:23:30;27.00;57.00
46976;DHT22;32724;51.094;6.996;2023-06-14T05:25:56;27.40;57.50
46976;DHT22;32724;51.094;6.996;2023-06-14T05:28:22;27.80;52.20
46976;DHT22;32724;51.094;6.996;2023-06-14T05:30:47;28.20;54.40
46976;DHT22;32724;51.094;6.996;2023-06-14T05:33:13;28.70;53.70
46976;DHT22;32724;51.094;6.996;2023-06-14T05:35:38;28.70;53.00
46976;DHT22;32724;51.094;6.996;2023-06-14T05:38:04;28.50;51.50
46976;DHT22;32724;51.094;6.996;2023-06-14T05:40:29;28.60;52.10
46976;DHT22;32724;51.094;6.996;2023-06-14T05:42:55;28.70;51.40
46976;DHT22;32724;51.094;6.996;2023-06-14T05:45:20;29.20;50.70
46976;DHT22;32724;51.094;6.996;2023-06-14T05:47:46;28.70;50.30
46976;DHT22;32724;51.094;6.996;2023-06-14T05:50:11;28.00;50.80
46976;DHT22;32724;51.094;6.996;2023-06-14T05:52:36;28.10;51.60
46976;DHT22;32724;51.094;6.996;2023-06-14T05:55:02;28.50;51.50
46976;DHT22;32724;51.094;6.996;2023-06-14T05:57:28;29.00;50.70
46976;DHT22;32724;51.094;6.996;2023-06-14T05:59:54;29.20;49.00
46976;DHT22;32724;51.094;6.996;2023-06-14T06:02:19;29.40;49.60
46976;DHT22;32724;51.094;6.996;2023-06-14T06:04:45;29.60;49.80
46976;DHT22;32724;51.094;6.996;2023-06-14T06:07:10;29.60;48.90
46976;DHT22;32724;51.094;6.996;2023-06-14T06:09:36;29.00;49.30
46976;DHT22;32724;51.094;6.996;2023-06-14T06:12:02;28.60;49.80
46976;DHT22;32724;51.094;6.996;2023-06-14T06:14:28;27.80;50.70
46976;DHT22;32724;51.094;6.996;2023-06-14T06:16:54;27.50;51.80
46976;DHT22;32724;51.094;6.996;2023-06-14T06:19:19;27.40;50.90
46976;DHT22;32724;51.094;6.996;2023-06-14T06:21:45;27.60;51.30
46976;DHT22;32724;51.094;6.996;2023-06-14T06:24:10;27.70;50.90
46976;DHT22;32724;51.094;6.996;2023-06-14T06:26:35;27.80;51.50
46976;DHT22;32724;51.094;6.996;2023-06-14T06:29:01;28.20;50.40
46976;DHT22;32724;51.094;6.996;2023-06-14T06:31:27;28.60;49.40
46976;DHT22;32724;51.094;6.996;2023-06-14T06:33:53;29.10;49.10
46976;DHT22;32724;51.094;6.996;2023-06-14T06:36:19;28.70;49.70
46976;DHT22;32724;51.094;6.996;2023-06-14T06:38:45;28.30;49.70
46976;DHT22;32724;51.094;6.996;2023-06-14T06:41:10;28.10;50.00
46976;DHT22;32724;51.094;6.996;2023-06-14T06:43:36;28.20;51.10
46976;DHT22;32724;51.094;6.996;2023-06-14T06:46:01;28.60;49.00
46976;DHT22;32724;51.094;6.996;2023-06-14T06:48:27;27.50;49.40
46976;DHT22;32724;51.094;6.996;2023-06-14T06:50:53;27.00;50.20
46976;DHT22;32724;51.094;6.996;2023-06-14T06:53:19;27.00;50.60
46976;DHT22;32724;51.094;6.996;2023-06-14T06:55:44;26.70;50.50
46976;DHT22;32724;51.094;6.996;2023-06-14T06:58:10;26.60;50.40
46976;DHT22;32724;51.094;6.996;2023-06-14T07:00:35;26.30;50.60
46976;DHT22;32724;51.094;6.996;2023-06-14T07:03:01;26.20;50.90
46976;DHT22;32724;51.094;6.996;2023-06-14T07:05:29;26.20;51.30
46976;DHT22;32724;51.094;6.996;2023-06-14T07:07:54;26.30;51.00
46976;DHT22;32724;51.094;6.996;2023-06-14T07:10:20;25.90;50.60
46976;DHT22;32724;51.094;6.996;2023-06-14T07:12:45;25.80;50.60
46976;DHT22;32724;51.094;6.996;2023-06-14T07:15:11;25.70;49.60
46976;DHT22;32724;51.094;6.996;2023-06-14T07:17:37;25.00;50.60
46976;DHT22;32724;51.094;6.996;2023-06-14T07:20:03;24.50;52.20
46976;DHT22;32724;51.094;6.996;2023-06-14T07:22:40;24.70;52.00
46976;DHT22;32724;51.094;6.996;2023-06-14T07:25:08;24.80;51.00
46976;DHT22;32724;51.094;6.996;2023-06-14T07:27:34;24.60;50.80
46976;DHT22;32724;51.094;6.996;2023-06-14T07:29:59;24.80;51.30
46976;DHT22;32724;51.094;6.996;2023-06-14T07:32:25;25.00;50.80
46976;DHT22;32724;51.094;6.996;2023-06-14T07:34:50;25.10;50.20
46976;DHT22;32724;51.094;6.996;2023-06-14T07:37:16;24.70;50.10
46976;DHT22;32724;51.094;6.996;2023-06-14T07:39:41;24.50;50.90
46976;DHT22;32724;51.094;6.996;2023-06-14T07:42:07;24.80;51.10
46976;DHT22;32724;51.094;6.996;2023-06-14T07:44:32;25.00;51.40
46976;DHT22;32724;51.094;6.996;2023-06-14T07:46:58;25.20;49.10
46976;DHT22;32724;51.094;6.996;2023-06-14T07:49:25;25.20;50.20
46976;DHT22;32724;51.094;6.996;2023-06-14T07:51:51;25.00;48.00
46976;DHT22;32724;51.094;6.996;2023-06-14T07:54:16;24.30;48.70
46976;DHT22;32724;51.094;6.996;2023-06-14T07:56:42;24.30;49.40
46976;DHT22;32724;51.094;6.996;2023-06-14T07:59:08;24.00;49.10
46976;DHT22;32724;51.094;6.996;2023-06-14T08:01:33;23.90;48.60
46976;DHT22;32724;51.094;6.996;2023-06-14T08:03:59;24.00;50.60
46976;DHT22;32724;51.094;6.996;2023-06-14T08:06:24;24.00;49.80
46976;DHT22;32724;51.094;6.996;2023-06-14T08:08:50;24.20;50.00
46976;DHT22;32724;51.094;6.996;2023-06-14T08:11:15;24.20;50.00
46976;DHT22;32724;51.094;6.996;2023-06-14T08:13:41;24.30;50.20
46976;DHT22;32724;51.094;6.996;2023-06-14T08:16:06;24.40;50.10
46976;DHT22;32724;51.094;6.996;2023-06-14T08:18:32;24.40;50.40
46976;DHT22;32724;51.094;6.996;2023-06-14T08:20:57;24.30;50.70
46976;DHT22;32724;51.094;6.996;2023-06-14T08:23:23;24.30;51.20
46976;DHT22;32724;51.094;6.996;2023-06-14T08:25:48;24.30;49.90
46976;DHT22;32724;51.094;6.996;2023-06-14T08:28:14;24.00;50.50
46976;DHT22;32724;51.094;6.996;2023-06-14T08:30:39;24.10;50.20
46976;DHT22;32724;51.094;6.996;2023-06-14T08:33:07;24.50;50.30
46976;DHT22;32724;51.094;6.996;2023-06-14T08:35:33;24.30;50.50
46976;DHT22;32724;51.094;6.996;2023-06-14T08:37:58;24.50;50.60
46976;DHT22;32724;51.094;6.996;2023-06-14T08:40:24;24.40;49.50
46976;DHT22;32724;51.094;6.996;2023-06-14T08:42:50;24.30;50.20
46976;DHT22;32724;51.094;6.996;2023-06-14T08:45:16;24.10;51.00
46976;DHT22;32724;51.094;6.996;2023-06-14T08:47:42;24.20;51.30
46976;DHT22;32724;51.094;6.996;2023-06-14T08:50:08;24.20;50.50
46976;DHT22;32724;51.094;6.996;2023-06-14T08:52:35;24.20;50.80
46976;DHT22;32724;51.094;6.996;2023-06-14T08:55:06;24.30;51.80
46976;DHT22;32724;51.094;6.996;2023-06-14T08:57:31;24.50;52.20
46976;DHT22;32724;51.094;6.996;2023-06-14T08:59:58;24.50;51.30
46976;DHT22;32724;51.094;6.996;2023-06-14T09:02:26;24.70;51.50
46976;DHT22;32724;51.094;6.996;2023-06-14T09:04:52;24.60;51.40
46976;DHT22;32724;51.094;6.996;2023-06-14T09:07:17;24.70;51.50
46976;DHT22;32724;51.094;6.996;2023-06-14T09:09:43;24.60;51.70
46976;DHT22;32724;51.094;6.996;2023-06-14T09:12:10;24.60;52.20
46976;DHT22;32724;51.094;6.996;2023-06-14T09:14:36;24.50;52.40
46976;DHT22;32724;51.094;6.996;2023-06-14T09:17:04;24.50;52.40
46976;DHT22;32724;51.094;6.996;2023-06-14T09:19:29;24.30;52.80
46976;DHT22;32724;51.094;6.996;2023-06-14T09:21:55;24.20;52.30
46976;DHT22;32724;51.094;6.996;2023-06-14T09:24:20;24.10;52.70
46976;DHT22;32724;51.094;6.996;2023-06-14T09:26:52;24.00;53.50
46976;DHT22;32724;51.094;6.996;2023-06-14T09:29:18;23.90;54.00
46976;DHT22;32724;51.094;6.996;2023-06-14T09:31:47;23.70;54.50
46976;DHT22;32724;51.094;6.996;2023-06-14T09:34:12;23.70;54.80
46976;DHT22;32724;51.094;6.996;2023-06-14T09:36:38;23.60;54.30
46976;DHT22;32724;51.094;6.996;2023-06-14T09:39:05;23.90;55.60
46976;DHT22;32724;51.094;6.996;2023-06-14T09:41:40;24.00;55.00
46976;DHT22;32724;51.094;6.996;2023-06-14T09:44:08;23.80;55.00
46976;DHT22;32724;51.094;6.996;2023-06-14T09:46:34;23.90;55.90
46976;DHT22;32724;51.094;6.996;2023-06-14T09:49:00;23.90;55.90
46976;DHT22;32724;51.094;6.996;2023-06-14T09:51:26;24.30;55.10
46976;DHT22;32724;51.094;6.996;2023-06-14T09:53:52;24.30;55.40
46976;DHT22;32724;51.094;6.996;2023-06-14T09:56:27;24.10;56.70
46976;DHT22;32724;51.094;6.996;2023-06-14T09:58:58;24.20;57.00
46976;DHT22;32724;51.094;6.996;2023-06-14T10:01:24;24.10;56.70
46976;DHT22;32724;51.094;6.996;2023-06-14T10:04:03;24.10;56.90
46976;DHT22;32724;51.094;6.996;2023-06-14T10:06:29;24.00;57.50
46976;DHT22;32724;51.094;6.996;2023-06-14T10:08:56;24.10;57.60
46976;DHT22;32724;51.094;6.996;2023-06-14T10:11:22;24.00;57.20
46976;DHT22;32724;51.094;6.996;2023-06-14T10:13:48;23.90;57.50
46976;DHT22;32724;51.094;6.996;2023-06-14T10:18:52;24.20;58.10
46976;DHT22;32724;51.094;6.996;2023-06-14T10:21:26;24.10;56.90
46976;DHT22;32724;51.094;6.996;2023-06-14T10:23:54;24.00;57.20
46976;DHT22;32724;51.094;6.996;2023-06-14T10:26:22;24.10;57.30
46976;DHT22;32724;51.094;6.996;2023-06-14T10:31:47;24.30;57.80
46976;DHT22;32724;51.094;6.996;2023-06-14T10:34:20;24.60;57.20
46976;DHT22;32724;51.094;6.996;2023-06-14T10:36:50;24.50;57.20
46976;DHT22;32724;51.094;6.996;2023-06-14T10:39:25;24.50;57.00
46976;DHT22;32724;51.094;6.996;2023-06-14T10:41:54;24.50;57.20
46976;DHT22;32724;51.094;6.996;2023-06-14T10:46:46;24.70;57.00
46976;DHT22;32724;51.094;6.996;2023-06-14T10:49:12;24.70;57.10
46976;DHT22;32724;51.094;6.996;2023-06-14T10:51:42;25.10;57.60
46976;DHT22;32724;51.094;6.996;2023-06-14T10:54:14;25.30;56.10
46976;DHT22;32724;51.094;6.996;2023-06-14T10:56:50;25.30;55.50
46976;DHT22;32724;51.094;6.996;2023-06-14T10:59:16;25.10;54.80
46976;DHT22;32724;51.094;6.996;2023-06-14T11:04:10;24.80;55.30
46976;DHT22;32724;51.094;6.996;2023-06-14T11:06:43;24.70;55.60
46976;DHT22;32724;51.094;6.996;2023-06-14T11:09:13;24.70;56.40
46976;DHT22;32724;51.094;6.996;2023-06-14T11:11:44;24.80;56.30
46976;DHT22;32724;51.094;6.996;2023-06-14T11:14:10;24.90;55.90
46976;DHT22;32724;51.094;6.996;2023-06-14T11:16:35;24.80;55.10
46976;DHT22;32724;51.094;6.996;2023-06-14T11:19:01;24.80;55.20
46976;DHT22;32724;51.094;6.996;2023-06-14T11:21:31;25.10;54.40
46976;DHT22;32724;51.094;6.996;2023-06-14T11:23:58;25.40;54.50
46976;DHT22;32724;51.094;6.996;2023-06-14T11:26:32;25.60;53.90
46976;DHT22;32724;51.094;6.996;2023-06-14T11:29:00;25.60;52.60
46976;DHT22;32724;51.094;6.996;2023-06-14T11:31:26;25.60;53.70
46976;DHT22;32724;51.094;6.996;2023-06-14T11:33:56;25.40;53.10
46976;DHT22;32724;51.094;6.996;2023-06-14T11:36:22;25.30;53.20
46976;DHT22;32724;51.094;6.996;2023-06-14T11:38:48;25.30;53.00
46976;DHT22;32724;51.094;6.996;2023-06-14T11:41:13;25.40;53.20
46976;DHT22;32724;51.094;6.996;2023-06-14T11:43:39;25.20;52.30
46976;DHT22;32724;51.094;6.996;2023-06-14T11:46:11;25.20;52.60
46976;DHT22;32724;51.094;6.996;2023-06-14T11:48:46;25.30;53.20
46976;DHT22;32724;51.094;6.996;2023-06-14T11:51:12;25.20;52.00
46976;DHT22;32724;51.094;6.996;2023-06-14T11:53:37;25.30;52.00
46976;DHT22;32724;51.094;6.996;2023-06-14T11:56:03;25.30;51.60
46976;DHT22;32724;51.094;6.996;2023-06-14T11:58:29;25.20;52.40
46976;DHT22;32724;51.094;6.996;2023-06-14T12:00:54;25.10;52.30
46976;DHT22;32724;51.094;6.996;2023-06-14T12:03:23;25.10;52.40
46976;DHT22;32724;51.094;6.996;2023-06-14T12:06:01;25.40;52.30
46976;DHT22;32724;51.094;6.996;2023-06-14T12:08:31;25.50;52.10
46976;DHT22;32724;51.094;6.996;2023-06-14T12:10:58;25.50;52.30
46976;DHT22;32724;51.094;6.996;2023-06-14T12:13:24;25.70;52.80
46976;DHT22;32724;51.094;6.996;2023-06-14T12:15:56;25.80;52.10
46976;DHT22;32724;51.094;6.996;2023-06-14T12:18:31;26.00;52.10
46976;DHT22;32724;51.094;6.996;2023-06-14T12:20:58;25.70;51.70
46976;DHT22;32724;51.094;6.996;2023-06-14T12:23:38;25.40;52.30
46976;DHT22;32724;51.094;6.996;2023-06-14T12:26:04;25.60;51.50
46976;DHT22;32724;51.094;6.996;2023-06-14T12:28:31;25.70;52.00
46976;DHT22;32724;51.094;6.996;2023-06-14T12:30:56;25.80;51.70
46976;DHT22;32724;51.094;6.996;2023-06-14T12:33:24;25.80;52.40
46976;DHT22;32724;51.094;6.996;2023-06-14T12:35:50;25.90;51.20
46976;DHT22;32724;51.094;6.996;2023-06-14T12:38:15;26.10;50.60
46976;DHT22;32724;51.094;6.996;2023-06-14T12:40:41;26.20;51.60
46976;DHT22;32724;51.094;6.996;2023-06-14T12:43:07;26.20;48.50
46976;DHT22;32724;51.094;6.996;2023-06-14T12:45:33;25.90;47.70
46976;DHT22;32724;51.094;6.996;2023-06-14T12:47:58;25.70;49.30
46976;DHT22;32724;51.094;6.996;2023-06-14T12:50:24;25.60;49.80
46976;DHT22;32724;51.094;6.996;2023-06-14T12:52:49;25.50;50.90
46976;DHT22;32724;51.094;6.996;2023-06-14T12:55:15;25.80;49.70
46976;DHT22;32724;51.094;6.996;2023-06-14T12:57:40;25.70;49.60
46976;DHT22;32724;51.094;6.996;2023-06-14T13:00:06;25.80;50.20
46976;DHT22;32724;51.094;6.996;2023-06-14T13:02:32;25.70;50.80
46976;DHT22;32724;51.094;6.996;2023-06-14T13:04:58;25.80;50.50
46976;DHT22;32724;51.094;6.996;2023-06-14T13:07:24;25.70;49.80
46976;DHT22;32724;51.094;6.996;2023-06-14T13:09:50;25.50;51.30
46976;DHT22;32724;51.094;6.996;2023-06-14T13:12:15;25.60;50.90
46976;DHT22;32724;51.094;6.996;2023-06-14T13:14:41;25.90;50.80
46976;DHT22;32724;51.094;6.996;2023-06-14T13:17:09;25.80;50.40
46976;DHT22;32724;51.094;6.996;2023-06-14T13:19:35;25.70;50.80
46976;DHT22;32724;51.094;6.996;2023-06-14T13:22:01;25.70;51.00
46976;DHT22;32724;51.094;6.996;2023-06-14T13:24:27;25.70;51.20
46976;DHT22;32724;51.094;6.996;2023-06-14T13:26:55;25.70;51.30
46976;DHT22;32724;51.094;6.996;2023-06-14T13:29:20;25.60;49.90
46976;DHT22;32724;51.094;6.996;2023-06-14T13:31:46;25.60;51.00
46976;DHT22;32724;51.094;6.996;2023-06-14T13:34:11;25.80;50.70
46976;DHT22;32724;51.094;6.996;2023-06-14T13:36:37;25.70;49.00
46976;DHT22;32724;51.094;6.996;2023-06-14T13:39:02;25.70;49.60
46976;DHT22;32724;51.094;6.996;2023-06-14T13:41:28;25.70;50.70
46976;DHT22;32724;51.094;6.996;2023-06-14T13:43:57;25.50;51.10
46976;DHT22;32724;51.094;6.996;2023-06-14T13:46:22;25.40;51.70
46976;DHT22;32724;51.094;6.996;2023-06-14T13:48:48;25.60;51.10
46976;DHT22;32724;51.094;6.996;2023-06-14T13:51:13;25.40;50.80
46976;DHT22;32724;51.094;6.996;2023-06-14T13:53:39;25.40;50.40
46976;DHT22;32724;51.094;6.996;2023-06-14T13:56:04;25.40;51.60
46976;DHT22;32724;51.094;6.996;2023-06-14T13:58:30;25.30;51.80
46976;DHT22;32724;51.094;6.996;2023-06-14T14:00:55;25.10;50.80
46976;DHT22;32724;51.094;6.996;2023-06-14T14:03:22;24.80;51.70
46976;DHT22;32724;51.094;6.996;2023-06-14T14:05:47;24.90;50.70
46976;DHT22;32724;51.094;6.996;2023-06-14T14:08:12;25.00;50.70
46976;DHT22;32724;51.094;6.996;2023-06-14T14:10:38;25.10;51.20
46976;DHT22;32724;51.094;6.996;2023-06-14T14:13:04;25.00;51.10
46976;DHT22;32724;51.094;6.996;2023-06-14T14:15:29;25.10;51.20
46976;DHT22;32724;51.094;6.996;2023-06-14T14:17:55;25.20;51.40
46976;DHT22;32724;51.094;6.996;2023-06-14T14:20:22;25.30;51.60
46976;DHT22;32724;51.094;6.996;2023-06-14T14:22:48;25.50;51.70
46976;DHT22;32724;51.094;6.996;2023-06-14T14:25:13;25.50;52.00
46976;DHT22;32724;51.094;6.996;2023-06-14T14:27:39;25.40;52.10
46976;DHT22;32724;51.094;6.996;2023-06-14T14:30:05;25.50;51.10
46976;DHT22;32724;51.094;6.996;2023-06-14T14:32:31;25.50;51.00
46976;DHT22;32724;51.094;6.996;2023-06-14T14:34:56;25.40;51.00
46976;DHT22;32724;51.094;6.996;2023-06-14T14:37:22;25.00;51.00
46976;DHT22;32724;51.094;6.996;2023-06-14T14:39:47;24.80;51.30
46976;DHT22;32724;51.094;6.996;2023-06-14T14:42:13;24.70;51.20
46976;DHT22;32724;51.094;6.996;2023-06-14T14:44:38;24.80;51.60
46976;DHT22;32724;51.094;6.996;2023-06-14T14:47:04;24.90;51.70
46976;DHT22;32724;51.094;6.996;2023-06-14T14:49:30;25.20;52.60
46976;DHT22;32724;51.094;6.996;2023-06-14T14:51:56;25.30;52.00
46976;DHT22;32724;51.094;6.996;2023-06-14T14:54:22;25.30;51.50
46976;DHT22;32724;51.094;6.996;2023-06-14T14:56:48;25.20;51.80
46976;DHT22;32724;51.094;6.996;2023-06-14T14:59:14;24.90;51.70
46976;DHT22;32724;51.094;6.996;2023-06-14T15:01:39;24.90;51.70
46976;DHT22;32724;51.094;6.996;2023-06-14T15:04:05;25.00;51.10
46976;DHT22;32724;51.094;6.996;2023-06-14T15:06:30;25.00;51.60
46976;DHT22;32724;51.094;6.996;2023-06-14T15:08:56;25.00;51.70
46976;DHT22;32724;51.094;6.996;2023-06-14T15:11:22;25.00;51.90
46976;DHT22;32724;51.094;6.996;2023-06-14T15:13:47;25.10;52.10
46976;DHT22;32724;51.094;6.996;2023-06-14T15:16:14;25.00;51.90
46976;DHT22;32724;51.094;6.996;2023-06-14T15:18:39;25.10;51.70
46976;DHT22;32724;51.094;6.996;2023-06-14T15:21:05;25.10;51.30
46976;DHT22;32724;51.094;6.996;2023-06-14T15:23:30;25.20;51.70
46976;DHT22;32724;51.094;6.996;2023-06-14T15:25:56;25.10;51.10
46976;DHT22;32724;51.094;6.996;2023-06-14T15:28:21;25.10;52.10
46976;DHT22;32724;51.094;6.996;2023-06-14T15:30:49;25.20;51.80
46976;DHT22;32724;51.094;6.996;2023-06-14T15:33:15;25.20;52.20
46976;DHT22;32724;51.094;6.996;2023-06-14T15:35:40;25.20;52.30
46976;DHT22;32724;51.094;6.996;2023-06-14T15:38:06;25.30;52.50